createdAt,value
2023-07-14T00:00:41.221Z,16.18
2023-07-14T00:02:51.897Z,16.17
2023-07-14T00:05:03.324Z,16.13
2023-07-14T00:07:16.575Z,16.30
2023-07-14T00:09:28.099Z,16.37
2023-07-14T00:11:36.226Z,16.33
2023-07-14T00:13:44.475Z,16.27
2023-07-14T00:15:52.520Z,16.23
2023-07-14T00:18:05.679Z,16.28
2023-07-14T00:20:32.121Z,16.33
2023-07-14T00:22:41.106Z,16.27
2023-07-14T00:24:49.077Z,16.27
2023-07-14T00:27:00.530Z,16.22
2023-07-14T00:29:18.457Z,16.20
2023-07-14T00:31:27.154Z,16.09
2023-07-14T00:33:35.091Z,16.00
2023-07-14T00:35:46.597Z,15.85
2023-07-14T00:37:53.183Z,15.78
2023-07-14T00:40:08.233Z,15.71
2023-07-14T00:42:19.277Z,15.67
2023-07-14T00:44:27.957Z,15.59
2023-07-14T00:46:37.399Z,15.54
2023-07-14T00:48:47.073Z,15.50
2023-07-14T00:51:02.420Z,15.46
2023-07-14T00:53:14.395Z,15.49
2023-07-14T00:55:33.850Z,15.67
2023-07-14T00:57:42.256Z,15.82
2023-07-14T00:59:50.318Z,15.95
2023-07-14T01:02:20.791Z,16.20
2023-07-14T01:04:29.471Z,16.09
2023-07-14T01:06:42.857Z,16.00
2023-07-14T01:09:01.965Z,15.91
2023-07-14T01:11:10.172Z,15.91
2023-07-14T01:13:17.235Z,15.79
2023-07-14T01:15:25.775Z,15.82
2023-07-14T01:17:38.188Z,15.77
2023-07-14T01:19:51.300Z,15.80
2023-07-14T01:22:10.884Z,15.78
2023-07-14T01:24:28.594Z,15.82
2023-07-14T01:27:03.838Z,15.86
2023-07-14T01:29:12.203Z,15.89
2023-07-14T01:31:24.815Z,15.83
2023-07-14T01:33:35.155Z,15.77
2023-07-14T01:35:47.114Z,15.68
2023-07-14T01:37:55.580Z,15.57
2023-07-14T01:40:04.094Z,15.43
2023-07-14T01:42:14.953Z,15.28
2023-07-14T01:44:22.432Z,15.18
2023-07-14T01:46:31.054Z,15.16
2023-07-14T01:48:43.979Z,15.29
2023-07-14T01:50:57.490Z,15.38
2023-07-14T01:53:12.099Z,15.44
2023-07-14T01:55:23.493Z,15.40
2023-07-14T01:57:38.142Z,15.30
2023-07-14T01:59:50.111Z,15.17
2023-07-14T02:02:01.865Z,15.07
2023-07-14T02:04:15.753Z,15.03
2023-07-14T02:06:23.907Z,14.94
2023-07-14T02:08:33.332Z,14.86
2023-07-14T02:10:41.599Z,14.89
2023-07-14T02:12:53.283Z,14.85
2023-07-14T02:15:07.253Z,14.82
2023-07-14T02:17:24.851Z,14.74
2023-07-14T02:19:33.449Z,14.63
2023-07-14T02:21:41.884Z,14.55
2023-07-14T02:23:51.801Z,14.49
2023-07-14T02:26:11.223Z,14.53
2023-07-14T02:28:21.848Z,14.52
2023-07-14T02:30:40.918Z,14.55
2023-07-14T02:32:54.546Z,14.63
2023-07-14T02:35:08.734Z,14.65
2023-07-14T02:37:52.578Z,14.66
2023-07-14T02:40:06.294Z,14.46
2023-07-14T02:42:14.195Z,14.41
2023-07-14T02:44:30.118Z,14.46
2023-07-14T02:46:44.429Z,14.59
2023-07-14T02:48:55.698Z,14.52
2023-07-14T02:51:06.364Z,14.41
2023-07-14T02:53:15.078Z,14.39
2023-07-14T02:55:23.288Z,14.29
2023-07-14T02:57:31.291Z,14.23
2023-07-14T02:59:42.330Z,14.06
2023-07-14T03:01:53.034Z,13.97
2023-07-14T03:04:01.208Z,13.90
2023-07-14T03:06:09.850Z,13.86
2023-07-14T03:08:19.568Z,13.81
2023-07-14T03:10:27.588Z,13.73
2023-07-14T03:12:35.944Z,13.65
2023-07-14T03:14:46.833Z,13.60
2023-07-14T03:16:55.085Z,13.56
2023-07-14T03:19:03.098Z,13.54
2023-07-14T03:21:12.339Z,13.53
2023-07-14T03:23:20.564Z,13.50
2023-07-14T03:25:30.284Z,13.55
2023-07-14T03:27:38.586Z,13.52
2023-07-14T03:29:49.716Z,13.49
2023-07-14T03:31:57.798Z,13.47
2023-07-14T03:34:05.663Z,13.49
2023-07-14T03:36:15.868Z,13.53
2023-07-14T03:38:24.209Z,13.51
2023-07-14T03:40:32.748Z,13.49
2023-07-14T03:42:41.555Z,13.48
2023-07-14T03:44:53.181Z,13.47
2023-07-14T03:47:03.875Z,13.48
2023-07-14T03:49:11.988Z,13.54
2023-07-14T03:51:20.811Z,13.58
2023-07-14T03:53:28.910Z,13.59
2023-07-14T03:55:36.828Z,13.65
2023-07-14T03:58:01.965Z,13.76
2023-07-14T04:00:22.623Z,13.90
2023-07-14T04:02:32.877Z,14.10
2023-07-14T04:04:40.867Z,14.19
2023-07-14T04:06:49.181Z,14.33
2023-07-14T04:08:58.560Z,14.43
2023-07-14T04:11:06.464Z,14.51
2023-07-14T04:13:15.336Z,14.54
2023-07-14T04:15:25.863Z,14.70
2023-07-14T04:17:34.421Z,15.04
2023-07-14T04:19:42.573Z,15.76
2023-07-14T04:21:51.235Z,16.38
2023-07-14T04:24:00.485Z,16.96
2023-07-14T04:26:09.278Z,17.11
2023-07-14T04:28:17.197Z,17.89
2023-07-14T04:30:27.749Z,17.47
2023-07-14T04:32:35.935Z,17.78
2023-07-14T04:34:45.005Z,17.02
2023-07-14T04:36:53.199Z,16.79
2023-07-14T04:39:06.905Z,16.62
2023-07-14T04:41:17.335Z,16.76
2023-07-14T04:43:25.828Z,16.58
2023-07-14T04:45:41.848Z,16.57
2023-07-14T04:47:52.388Z,16.10
2023-07-14T04:50:00.578Z,16.43
2023-07-14T04:52:08.758Z,16.68
2023-07-14T04:54:16.971Z,17.09
2023-07-14T04:56:22.896Z,17.11
2023-07-14T04:58:31.007Z,17.24
2023-07-14T05:00:43.836Z,17.34
2023-07-14T05:02:52.247Z,17.30
2023-07-14T05:05:16.297Z,17.38
2023-07-14T05:07:27.175Z,17.59
2023-07-14T05:09:35.873Z,17.11
2023-07-14T05:11:44.549Z,17.21
2023-07-14T05:13:55.584Z,17.31
2023-07-14T05:16:06.419Z,17.45
2023-07-14T05:18:14.914Z,17.59
2023-07-14T05:20:23.860Z,17.53
2023-07-14T05:22:32.446Z,17.30
2023-07-14T05:24:40.402Z,17.26
2023-07-14T05:26:48.446Z,17.11
2023-07-14T05:28:56.419Z,17.43
2023-07-14T05:31:09.331Z,17.52
2023-07-14T05:33:17.931Z,17.94
2023-07-14T05:35:26.685Z,18.17
2023-07-14T05:37:32.042Z,18.39
2023-07-14T05:39:40.260Z,18.69
2023-07-14T05:41:48.381Z,18.35
2023-07-14T05:43:56.448Z,18.52
2023-07-14T05:46:07.125Z,18.71
2023-07-14T05:48:12.834Z,19.05
2023-07-14T05:50:20.977Z,19.27
2023-07-14T05:52:29.058Z,19.65
2023-07-14T05:54:37.037Z,20.98
2023-07-14T05:56:45.097Z,21.72
2023-07-14T05:58:53.388Z,22.67
2023-07-14T06:01:01.700Z,23.60
2023-07-14T06:03:17.975Z,22.64
2023-07-14T06:05:27.209Z,22.45
2023-07-14T06:07:35.488Z,22.77
2023-07-14T06:09:45.102Z,22.32
2023-07-14T06:11:53.224Z,21.99
2023-07-14T06:14:01.666Z,22.74
2023-07-14T06:16:09.644Z,22.91
2023-07-14T06:18:21.596Z,22.44
2023-07-14T06:20:31.948Z,22.45
2023-07-14T06:22:40.683Z,21.88
2023-07-14T06:24:49.714Z,22.60
2023-07-14T06:26:58.059Z,23.73
2023-07-14T06:29:06.785Z,25.85
2023-07-14T06:31:17.609Z,26.58
2023-07-14T06:33:28.660Z,27.73
2023-07-14T06:35:36.552Z,27.22
2023-07-14T06:37:44.494Z,26.33
2023-07-14T06:39:52.460Z,27.07
2023-07-14T06:42:00.564Z,27.62
2023-07-14T06:44:24.682Z,28.54
2023-07-14T06:46:35.458Z,28.56
2023-07-14T06:48:47.348Z,29.71
2023-07-14T06:50:55.472Z,31.17
2023-07-14T06:53:03.772Z,30.42
2023-07-14T06:55:11.020Z,32.60
2023-07-14T06:57:19.141Z,32.75
2023-07-14T06:59:27.332Z,32.69
2023-07-14T07:01:35.513Z,31.78
2023-07-14T07:03:46.481Z,32.27
2023-07-14T07:05:55.294Z,32.01
2023-07-14T07:08:03.382Z,31.34
2023-07-14T07:10:13.011Z,32.97
2023-07-14T07:12:22.451Z,32.02
2023-07-14T07:14:31.510Z,30.99
2023-07-14T07:16:40.362Z,32.42
2023-07-14T07:18:51.454Z,31.76
2023-07-14T07:20:59.708Z,31.79
2023-07-14T07:23:08.426Z,30.65
2023-07-14T07:25:18.330Z,28.87
2023-07-14T07:27:26.393Z,28.82
2023-07-14T07:29:35.347Z,28.68
2023-07-14T07:31:43.602Z,30.44
2023-07-14T07:33:54.520Z,31.46
2023-07-14T07:36:16.240Z,32.87
2023-07-14T07:38:24.501Z,33.16
2023-07-14T07:40:33.043Z,33.66
2023-07-14T07:42:41.810Z,33.30
2023-07-14T07:44:49.947Z,34.34
2023-07-14T07:47:14.130Z,34.27
2023-07-14T07:49:24.702Z,33.73
2023-07-14T07:51:33.690Z,31.68
2023-07-14T07:53:42.010Z,33.76
2023-07-14T07:55:56.254Z,34.86
2023-07-14T07:58:04.428Z,32.57
2023-07-14T08:00:14.643Z,32.66
2023-07-14T08:02:22.917Z,34.05
2023-07-14T08:04:33.847Z,34.41
2023-07-14T08:06:42.233Z,31.12
2023-07-14T08:08:50.666Z,29.77
2023-07-14T08:10:58.986Z,28.02
2023-07-14T08:13:07.411Z,27.70
2023-07-14T08:15:15.660Z,27.35
2023-07-14T08:17:28.714Z,28.38
2023-07-14T08:19:39.567Z,28.93
2023-07-14T08:21:47.725Z,28.49
2023-07-14T08:23:55.726Z,28.82
2023-07-14T08:26:05.656Z,26.88
2023-07-14T08:28:13.995Z,26.61
2023-07-14T08:30:22.774Z,26.70
2023-07-14T08:32:30.902Z,27.13
2023-07-14T08:34:41.808Z,26.09
2023-07-14T08:36:49.853Z,26.59
2023-07-14T08:38:58.037Z,25.91
2023-07-14T08:41:10.990Z,25.94
2023-07-14T08:43:31.416Z,26.23
2023-07-14T08:45:39.729Z,25.80
2023-07-14T08:47:59.147Z,25.20
2023-07-14T08:50:18.297Z,25.05
2023-07-14T08:52:31.039Z,25.00
2023-07-14T08:54:46.877Z,26.08
2023-07-14T08:56:55.954Z,26.51
2023-07-14T08:59:04.277Z,26.59
2023-07-14T09:01:21.803Z,27.11
2023-07-14T09:03:40.814Z,27.36
2023-07-14T09:05:57.831Z,27.55
2023-07-14T09:08:06.535Z,27.76
2023-07-14T09:10:15.655Z,27.73
2023-07-14T09:12:30.248Z,27.47
2023-07-14T09:15:03.851Z,28.05
2023-07-14T09:17:22.609Z,26.93
2023-07-14T09:19:44.285Z,26.92
2023-07-14T09:22:03.324Z,27.18
2023-07-14T09:24:18.824Z,27.24
2023-07-14T09:26:34.676Z,28.12
2023-07-14T09:28:45.755Z,28.08
2023-07-14T09:30:55.079Z,26.51
2023-07-14T09:33:07.754Z,26.80
2023-07-14T09:35:21.500Z,26.38
2023-07-14T09:37:37.381Z,26.32
2023-07-14T09:39:48.019Z,26.44
2023-07-14T09:41:58.659Z,26.56
2023-07-14T09:44:06.988Z,26.50
2023-07-14T09:46:19.397Z,26.88
2023-07-14T09:48:30.234Z,27.26
2023-07-14T09:50:41.273Z,27.27
2023-07-14T09:52:57.786Z,26.91
2023-07-14T09:55:05.902Z,26.54
2023-07-14T09:57:28.937Z,26.03
2023-07-14T09:59:54.262Z,26.09
2023-07-14T10:02:04.141Z,26.42
2023-07-14T10:04:18.066Z,26.59
2023-07-14T10:06:28.361Z,26.21
2023-07-14T10:08:49.127Z,26.54
2023-07-14T10:11:01.227Z,26.05
2023-07-14T10:13:21.356Z,25.66
2023-07-14T10:15:35.852Z,25.39
2023-07-14T10:17:46.249Z,25.34
2023-07-14T10:19:57.351Z,25.62
2023-07-14T10:22:09.248Z,25.86
2023-07-14T10:24:25.483Z,25.71
2023-07-14T10:26:35.844Z,26.02
2023-07-14T10:28:45.874Z,26.22
2023-07-14T10:31:02.899Z,26.41
2023-07-14T10:33:20.112Z,26.95
2023-07-14T10:35:32.286Z,27.61
2023-07-14T10:37:44.604Z,27.72
2023-07-14T10:40:00.913Z,28.32
2023-07-14T10:42:14.057Z,28.75
2023-07-14T10:44:29.736Z,27.77
2023-07-14T10:46:43.611Z,27.60
2023-07-14T10:48:56.805Z,27.10
2023-07-14T10:51:10.305Z,27.92
2023-07-14T10:53:22.924Z,27.76
2023-07-14T10:55:35.795Z,28.52
2023-07-14T10:57:49.681Z,27.96
2023-07-14T11:00:03.008Z,27.70
2023-07-14T11:02:27.298Z,27.06
2023-07-14T11:04:38.670Z,26.94
2023-07-14T11:06:52.511Z,26.71
2023-07-14T11:09:03.329Z,26.98
2023-07-14T11:11:24.199Z,27.74
2023-07-14T11:13:41.351Z,28.34
2023-07-14T11:15:53.807Z,28.01
2023-07-14T11:18:09.182Z,28.06
2023-07-14T11:20:25.989Z,27.81
2023-07-14T11:23:00.721Z,27.96
2023-07-14T11:25:18.170Z,27.73
2023-07-14T11:27:34.918Z,27.26
2023-07-14T11:29:52.210Z,26.32
2023-07-14T11:32:03.706Z,26.07
2023-07-14T11:34:32.222Z,26.19
2023-07-14T11:36:46.620Z,26.71
2023-07-14T11:39:01.749Z,27.42
2023-07-14T11:41:09.976Z,27.59
2023-07-14T11:43:29.511Z,28.34
2023-07-14T11:45:35.399Z,28.25
2023-07-14T11:47:45.756Z,28.50
2023-07-14T11:49:58.625Z,27.11
2023-07-14T11:52:16.172Z,27.10
2023-07-14T11:54:28.431Z,27.85
2023-07-14T11:56:44.937Z,27.45
2023-07-14T11:59:09.880Z,27.88
2023-07-14T12:01:21.036Z,27.31
2023-07-14T12:03:35.944Z,28.30
2023-07-14T12:05:44.592Z,29.01
2023-07-14T12:08:28.332Z,28.86
2023-07-14T12:10:54.263Z,28.67
2023-07-14T12:13:38.906Z,29.36
2023-07-14T12:15:51.365Z,29.73
2023-07-14T12:18:19.335Z,28.42
2023-07-14T12:20:37.965Z,28.60
2023-07-14T12:22:50.307Z,28.04
2023-07-14T12:25:01.419Z,27.52
2023-07-14T12:27:22.703Z,27.72
2023-07-14T12:29:44.383Z,27.33
2023-07-14T12:32:03.914Z,27.69
2023-07-14T12:34:19.028Z,28.28
2023-07-14T12:36:30.577Z,28.63
2023-07-14T12:38:39.167Z,28.79
2023-07-14T12:40:45.715Z,29.05
2023-07-14T12:42:55.790Z,27.26
2023-07-14T12:45:04.100Z,27.94
2023-07-14T12:47:19.926Z,28.08
2023-07-14T12:49:37.933Z,28.38
2023-07-14T12:51:46.273Z,28.59
2023-07-14T12:54:02.233Z,28.77
2023-07-14T12:56:17.331Z,28.22
2023-07-14T12:58:28.023Z,28.40
2023-07-14T13:00:38.717Z,28.90
2023-07-14T13:02:51.888Z,29.19
2023-07-14T13:05:00.133Z,27.80
2023-07-14T13:07:11.898Z,27.47
2023-07-14T13:09:26.105Z,27.33
2023-07-14T13:11:41.072Z,27.96
2023-07-14T13:13:52.212Z,28.13
2023-07-14T13:16:05.458Z,27.44
2023-07-14T13:18:31.987Z,27.81
2023-07-14T13:20:43.088Z,27.27
2023-07-14T13:23:09.491Z,27.40
2023-07-14T13:25:21.689Z,26.97
2023-07-14T13:27:31.742Z,26.93
2023-07-14T13:29:41.887Z,26.98
2023-07-14T13:31:50.800Z,27.28
2023-07-14T13:34:02.958Z,27.51
2023-07-14T13:36:15.176Z,27.53
2023-07-14T13:38:23.334Z,27.33
2023-07-14T13:40:37.449Z,26.78
2023-07-14T13:42:50.845Z,26.75
2023-07-14T13:45:02.352Z,26.54
2023-07-14T13:47:20.211Z,26.73
2023-07-14T13:49:31.637Z,26.93
2023-07-14T13:51:40.083Z,27.23
2023-07-14T13:53:48.329Z,27.13
2023-07-14T13:55:57.034Z,27.20
2023-07-14T13:58:26.458Z,27.18
2023-07-14T14:00:34.882Z,27.24
2023-07-14T14:02:46.102Z,27.30
2023-07-14T14:04:59.558Z,27.35
2023-07-14T14:07:08.550Z,27.44
2023-07-14T14:09:24.068Z,27.79
2023-07-14T14:11:32.154Z,27.46
2023-07-14T14:13:40.244Z,27.77
2023-07-14T14:15:49.349Z,27.60
2023-07-14T14:18:00.665Z,27.62
2023-07-14T14:20:21.130Z,28.15
2023-07-14T14:22:30.993Z,28.22
2023-07-14T14:24:39.087Z,28.03
2023-07-14T14:26:47.240Z,28.09
2023-07-14T14:28:55.279Z,28.06
2023-07-14T14:31:05.183Z,28.06
2023-07-14T14:33:17.530Z,27.93
2023-07-14T14:35:31.906Z,27.49
2023-07-14T14:37:39.864Z,27.37
2023-07-14T14:39:48.176Z,27.76
2023-07-14T14:41:56.927Z,27.69
2023-07-14T14:44:09.764Z,27.57
2023-07-14T14:46:18.143Z,27.23
2023-07-14T14:48:39.366Z,27.60
2023-07-14T14:50:53.619Z,27.93
2023-07-14T14:53:01.861Z,28.01
2023-07-14T14:55:11.563Z,27.93
2023-07-14T14:57:21.908Z,27.80
2023-07-14T14:59:32.120Z,27.96
2023-07-14T15:01:39.802Z,28.16
2023-07-14T15:03:48.334Z,28.46
2023-07-14T15:05:59.828Z,28.31
2023-07-14T15:08:08.801Z,28.11
2023-07-14T15:10:17.991Z,27.88
2023-07-14T15:12:26.777Z,28.20
2023-07-14T15:14:38.258Z,28.23
2023-07-14T15:16:46.522Z,28.19
2023-07-14T15:18:54.728Z,28.40
2023-07-14T15:21:09.378Z,28.47
2023-07-14T15:23:19.429Z,28.42
2023-07-14T15:25:28.037Z,28.21
2023-07-14T15:27:39.550Z,28.21
2023-07-14T15:29:48.034Z,27.99
2023-07-14T15:31:56.042Z,27.95
2023-07-14T15:34:04.680Z,28.12
2023-07-14T15:36:19.204Z,27.88
2023-07-14T15:38:27.807Z,27.92
2023-07-14T15:40:43.807Z,27.64
2023-07-14T15:42:52.300Z,27.40
2023-07-14T15:45:00.731Z,27.59
2023-07-14T15:47:09.340Z,27.78
2023-07-14T15:49:20.841Z,27.64
2023-07-14T15:51:33.906Z,27.36
2023-07-14T15:53:44.534Z,27.61
2023-07-14T15:55:52.931Z,27.79
2023-07-14T15:58:01.034Z,27.77
2023-07-14T16:00:15.374Z,27.76
2023-07-14T16:02:23.661Z,27.54
2023-07-14T16:04:31.890Z,27.51
2023-07-14T16:06:43.374Z,27.49
2023-07-14T16:08:53.842Z,27.18
2023-07-14T16:11:02.167Z,27.14
2023-07-14T16:13:11.907Z,27.14
2023-07-14T16:15:25.510Z,27.21
2023-07-14T16:17:34.897Z,27.42
2023-07-14T16:19:43.242Z,27.57
2023-07-14T16:21:56.737Z,27.81
2023-07-14T16:24:05.783Z,27.81
2023-07-14T16:26:15.564Z,28.06
2023-07-14T16:28:24.111Z,28.14
2023-07-14T16:30:33.814Z,28.22
2023-07-14T16:32:41.963Z,28.30
2023-07-14T16:34:50.726Z,28.46
2023-07-14T16:37:01.959Z,28.38
2023-07-14T16:39:16.253Z,28.45
2023-07-14T16:41:25.071Z,28.40
2023-07-14T16:43:33.072Z,28.00
2023-07-14T16:45:41.904Z,27.87
2023-07-14T16:47:50.390Z,27.95
2023-07-14T16:50:01.146Z,27.79
2023-07-14T16:52:22.391Z,27.82
2023-07-14T16:54:32.582Z,27.81
2023-07-14T16:56:41.091Z,27.86
2023-07-14T16:58:49.309Z,27.91
2023-07-14T17:00:58.620Z,27.80
2023-07-14T17:03:19.695Z,27.85
2023-07-14T17:05:30.509Z,27.77
2023-07-14T17:07:41.237Z,27.68
2023-07-14T17:09:51.086Z,27.53
2023-07-14T17:12:00.443Z,27.58
2023-07-14T17:14:08.680Z,27.61
2023-07-14T17:16:17.361Z,27.67
2023-07-14T17:18:29.858Z,27.72
2023-07-14T17:20:38.832Z,27.74
2023-07-14T17:22:50.747Z,27.74
2023-07-14T17:24:59.093Z,27.72
2023-07-14T17:27:08.054Z,27.74
2023-07-14T17:29:18.990Z,27.74
2023-07-14T17:31:27.465Z,27.57
2023-07-14T17:33:35.579Z,27.48
2023-07-14T17:35:44.406Z,27.45
2023-07-14T17:37:58.888Z,27.46
2023-07-14T17:40:17.948Z,27.52
2023-07-14T17:42:29.261Z,27.47
2023-07-14T17:44:37.282Z,27.44
2023-07-14T17:46:45.339Z,27.46
2023-07-14T17:48:53.422Z,27.47
2023-07-14T17:51:05.439Z,27.48
2023-07-14T17:53:23.723Z,27.43
2023-07-14T17:55:31.885Z,27.34
2023-07-14T17:57:40.643Z,27.33
2023-07-14T17:59:52.672Z,27.31
2023-07-14T18:02:08.618Z,27.33
2023-07-14T18:04:17.031Z,27.26
2023-07-14T18:06:23.465Z,27.16
2023-07-14T18:08:35.531Z,27.14
2023-07-14T18:10:44.753Z,27.18
2023-07-14T18:12:53.083Z,27.08
2023-07-14T18:15:01.323Z,27.03
2023-07-14T18:17:09.697Z,27.03
2023-07-14T18:19:18.728Z,27.00
2023-07-14T18:21:27.568Z,26.94
2023-07-14T18:23:39.382Z,26.88
2023-07-14T18:25:47.536Z,26.83
2023-07-14T18:27:57.149Z,26.75
2023-07-14T18:30:05.933Z,26.66
2023-07-14T18:32:15.146Z,26.60
2023-07-14T18:34:24.724Z,26.52
2023-07-14T18:36:35.873Z,26.45
2023-07-14T18:38:46.409Z,26.37
2023-07-14T18:40:55.424Z,26.36
2023-07-14T18:43:03.538Z,26.23
2023-07-14T18:45:16.147Z,26.24
2023-07-14T18:47:24.253Z,26.13
2023-07-14T18:49:34.942Z,26.04
2023-07-14T18:51:44.433Z,25.85
2023-07-14T18:53:59.223Z,25.67
2023-07-14T18:56:08.256Z,25.56
2023-07-14T18:58:19.818Z,25.44
2023-07-14T19:00:27.933Z,25.32
2023-07-14T19:02:39.057Z,25.22
2023-07-14T19:04:47.402Z,25.19
2023-07-14T19:06:56.950Z,25.06
2023-07-14T19:09:17.633Z,24.94
2023-07-14T19:11:28.228Z,24.82
2023-07-14T19:13:39.896Z,24.75
2023-07-14T19:15:49.971Z,24.77
2023-07-14T19:17:58.238Z,24.70
2023-07-14T19:20:11.446Z,24.82
2023-07-14T19:22:25.578Z,24.79
2023-07-14T19:24:36.897Z,24.65
2023-07-14T19:26:45.730Z,24.69
2023-07-14T19:28:54.703Z,24.64
2023-07-14T19:31:03.077Z,24.60
2023-07-14T19:33:18.117Z,24.46
2023-07-14T19:35:26.140Z,24.41
2023-07-14T19:37:34.285Z,24.42
2023-07-14T19:39:46.056Z,24.38
2023-07-14T19:41:56.088Z,24.25
2023-07-14T19:44:06.399Z,24.16
2023-07-14T19:46:16.817Z,24.06
2023-07-14T19:48:26.878Z,23.93
2023-07-14T19:50:34.865Z,23.94
2023-07-14T19:52:43.240Z,23.88
2023-07-14T19:54:54.016Z,23.81
2023-07-14T19:57:02.028Z,23.79
2023-07-14T19:59:18.109Z,23.86
2023-07-14T20:01:26.760Z,23.88
2023-07-14T20:03:34.896Z,23.83
2023-07-14T20:05:43.744Z,23.80
2023-07-14T20:07:52.816Z,23.74
2023-07-14T20:10:08.142Z,23.62
2023-07-14T20:12:19.722Z,23.58
2023-07-14T20:14:30.763Z,23.41
2023-07-14T20:16:38.870Z,23.35
2023-07-14T20:18:47.430Z,23.28
2023-07-14T20:20:57.746Z,23.20
2023-07-14T20:23:07.088Z,23.09
2023-07-14T20:25:21.290Z,22.97
2023-07-14T20:27:29.758Z,22.90
2023-07-14T20:29:37.730Z,22.91
2023-07-14T20:31:48.583Z,22.79
2023-07-14T20:33:56.844Z,22.77
2023-07-14T20:36:05.493Z,22.90
2023-07-14T20:38:16.408Z,22.86
2023-07-14T20:40:29.688Z,22.83
2023-07-14T20:42:37.846Z,22.79
2023-07-14T20:44:47.836Z,22.77
2023-07-14T20:46:56.003Z,22.74
2023-07-14T20:49:17.638Z,22.76
2023-07-14T20:51:27.962Z,22.83
2023-07-14T20:53:36.272Z,22.77
2023-07-14T20:55:49.585Z,22.67
2023-07-14T20:57:58.289Z,22.64
2023-07-14T21:00:09.085Z,22.63
2023-07-14T21:02:23.742Z,22.61
2023-07-14T21:04:31.916Z,22.51
2023-07-14T21:06:40.210Z,22.48
2023-07-14T21:08:49.022Z,22.40
2023-07-14T21:11:05.938Z,22.22
2023-07-14T21:13:19.680Z,22.17
2023-07-14T21:15:28.336Z,22.25
2023-07-14T21:17:36.341Z,22.25
2023-07-14T21:19:44.979Z,22.09
2023-07-14T21:21:52.890Z,22.11
2023-07-14T21:24:02.658Z,22.18
2023-07-14T21:26:21.064Z,22.07
2023-07-14T21:28:30.502Z,22.02
2023-07-14T21:30:38.725Z,21.82
2023-07-14T21:32:47.103Z,21.88
2023-07-14T21:34:56.640Z,21.79
2023-07-14T21:37:04.680Z,21.78
2023-07-14T21:39:16.221Z,21.82
2023-07-14T21:41:26.455Z,21.90
2023-07-14T21:43:40.064Z,21.96
2023-07-14T21:45:49.556Z,21.79
2023-07-14T21:47:57.638Z,21.65
2023-07-14T21:50:05.793Z,21.60
2023-07-14T21:52:26.298Z,21.62
2023-07-14T21:54:35.017Z,21.63
2023-07-14T21:56:46.091Z,21.62
2023-07-14T21:58:54.262Z,21.56
2023-07-14T22:01:03.534Z,21.51
2023-07-14T22:03:11.567Z,21.50
2023-07-14T22:05:20.443Z,21.33
2023-07-14T22:07:29.366Z,21.27
2023-07-14T22:09:37.662Z,21.27
2023-07-14T22:11:48.637Z,21.31
2023-07-14T22:13:56.951Z,21.20
2023-07-14T22:16:06.625Z,21.14
2023-07-14T22:18:19.217Z,21.18
2023-07-14T22:20:32.323Z,21.10
2023-07-14T22:22:40.636Z,21.00
2023-07-14T22:24:50.576Z,21.02
2023-07-14T22:27:02.629Z,21.00
2023-07-14T22:29:11.124Z,20.93
2023-07-14T22:31:21.859Z,20.81
2023-07-14T22:33:34.608Z,20.96
2023-07-14T22:35:42.765Z,20.97
2023-07-14T22:37:50.962Z,20.95
2023-07-14T22:39:58.981Z,20.90
2023-07-14T22:42:10.149Z,20.87
2023-07-14T22:44:20.165Z,20.82
2023-07-14T22:46:26.216Z,20.83
2023-07-14T22:48:34.481Z,20.77
2023-07-14T22:50:43.003Z,20.80
2023-07-14T22:52:51.582Z,20.75
2023-07-14T22:54:59.696Z,20.87
2023-07-14T22:57:15.678Z,21.02
2023-07-14T22:59:23.702Z,21.17
2023-07-14T23:01:35.557Z,21.20
2023-07-14T23:03:44.183Z,21.25
2023-07-14T23:05:53.926Z,21.27
2023-07-14T23:08:02.026Z,21.17
2023-07-14T23:10:12.221Z,21.08
2023-07-14T23:12:22.947Z,20.96
2023-07-14T23:14:31.049Z,21.01
2023-07-14T23:16:39.098Z,21.06
2023-07-14T23:18:47.978Z,21.22
2023-07-14T23:21:00.001Z,21.20
2023-07-14T23:23:13.108Z,21.07
2023-07-14T23:25:23.570Z,21.06
2023-07-14T23:27:34.324Z,21.00
2023-07-14T23:29:43.950Z,21.08
2023-07-14T23:31:54.907Z,20.99
2023-07-14T23:34:03.062Z,20.84
2023-07-14T23:36:14.753Z,20.76
2023-07-14T23:38:23.831Z,20.71
2023-07-14T23:40:31.854Z,20.72
2023-07-14T23:42:42.435Z,20.66
2023-07-14T23:44:50.435Z,20.59
2023-07-14T23:46:58.675Z,20.62
2023-07-14T23:49:07.332Z,20.54
2023-07-14T23:51:18.699Z,20.48
2023-07-14T23:53:37.151Z,20.50
2023-07-14T23:55:45.121Z,20.46
2023-07-14T23:57:56.297Z,20.37
